Capitol Logistics 322


KABE
Lehigh Valley International Airport
Allentown, Pennsylvania, US
KRFD
Chicago/Rockford International Airport
Rockford, Illinois, US

Activity Log

Date Flight Route Aircraft Duration
01/16/2019 CPX410 ETX V30 PSB J60 JOT QUOTE RFD B752 2h 00m

Route Details

Aircraft Information
Primary: Boeing 767-300BDSF
Backup: Not Available
Route Data
Distance: 623nm
Sched. Duration: 1h 35m
Avg. Duration: 2h 00m (+65m)
Times Flown: 1
Recm'd Route: PSB J60 JOT V171 RFD
Planned Altitude: 34,000ft
Origin Wx: KABE 231251Z 00000KT 10SM CLR M02/M08 A3024 RMK AO2 SLP243 T10221078
Dest. Wx: KRFD 231254Z 21005KT 10SM CLR 03/M04 A2995 RMK AO2 SLP148 T00281039
Notes:

Financial History
Total Freight: 67,615lbs
Average Load: 67,615lbs/flt
Fuel Used: 12,672lbs
Avg. Fuel Used: 12,672lbs/flt
Fuel Expense: $9,377
Avg. Fuel Expense: $9,377
Avg. Fuel Cost: $0.74/lbs
Total Gross Income: $85,195
Pilot Pay: $69
Total Expenses: $9,253
Total Revenue: $66,367
Average Revenue: $85,194.90